Terminal Aerodrome Forecast
Issued by NWS

Home | Current Version | Previous Version | Text Only | Print | Product List | Glossary On
Versions: 1 2 3 4 5 6 7 8 9 10 11 12 13 14 15 16
000
FTUS44 KTSA 231720
TAFMLC
TAF
KMLC 231720Z 2318/2418 VRB04KT P6SM FEW250
      TEMPO 2320/2324 4SM -TSRA BKN025CB
     FM240000 02009KT P6SM BKN040
     FM240800 02008KT P6SM VCTS BKN060CB BKN100 PROB30 2408/2414 TS
      BKN040CB
     FM241600 04007KT P6SM SCT120 SCT250=

USA.gov is the U.S. government's official web portal to all federal, state and local government web resources and services.